Time;durP1;ratioP1;P1;durP2;ratioP2;P2;SDS_P1;SDS_P2;PMS_P1;PMS_P2;Temp;Humidity;BMP_temperature;BMP_pressure;BME280_temperature;BME280_humidity;BME280_pressure;Samples;Min_cycle;Max_cycle;Signal;HPM_P1;HPM_P2
2022/03/10 00:00:04;;;;;;;8.43;5.83;;;2.40;79.00;;;;;;4986276;28;22213;-83
2022/03/10 00:02:42;;;;;;;8.27;5.40;;;2.40;79.80;;;;;;4983118;28;20362;-82
2022/03/10 00:05:11;;;;;;;8.40;5.30;;;2.40;79.80;;;;;;4984125;28;20244;-83
2022/03/10 00:07:38;;;;;;;8.90;5.50;;;2.40;80.10;;;;;;4967817;28;20261;-83
2022/03/10 00:10:06;;;;;;;7.20;5.60;;;2.30;79.60;;;;;;4987528;28;20884;-83
2022/03/10 00:12:33;;;;;;;8.73;6.17;;;2.30;80.10;;;;;;4964849;28;20891;-82
2022/03/10 00:15:00;;;;;;;8.67;5.90;;;2.30;80.00;;;;;;4968680;28;20242;-82
2022/03/10 00:17:27;;;;;;;10.57;6.33;;;2.30;80.80;;;;;;4970051;28;20288;-82
2022/03/10 00:19:55;;;;;;;10.63;6.20;;;2.20;80.50;;;;;;4967623;28;20723;-83
2022/03/10 00:22:22;;;;;;;11.30;6.23;;;2.20;80.60;;;;;;4974732;28;20231;-83
2022/03/10 00:24:49;;;;;;;9.23;6.40;;;2.20;80.80;;;;;;4989734;28;20240;-82
2022/03/10 00:27:15;;;;;;;10.70;6.20;;;2.20;81.00;;;;;;4982692;28;20746;-82
2022/03/10 00:29:42;;;;;;;10.47;6.30;;;2.10;81.40;;;;;;4971478;28;20243;-82
2022/03/10 00:32:09;;;;;;;8.23;6.03;;;2.10;81.50;;;;;;4981977;28;20226;-82
2022/03/10 00:34:36;;;;;;;9.27;6.07;;;2.10;81.70;;;;;;4965553;28;20424;-83
2022/03/10 00:37:05;;;;;;;8.67;6.13;;;2.10;81.70;;;;;;4981349;28;20251;-84
2022/03/10 00:39:32;;;;;;;10.67;6.30;;;2.10;82.20;;;;;;4970779;28;20230;-84
2022/03/10 00:41:58;;;;;;;9.63;6.20;;;2.10;82.00;;;;;;4966323;28;20714;-85
2022/03/10 00:44:25;;;;;;;8.60;6.17;;;2.10;82.10;;;;;;4978648;28;20233;-84
2022/03/10 00:46:52;;;;;;;9.07;6.43;;;2.00;82.00;;;;;;4984389;28;20234;-83
2022/03/10 00:49:18;;;;;;;12.13;7.10;;;2.00;82.00;;;;;;4974982;28;20247;-84
2022/03/10 00:51:50;;;;;;;9.50;6.07;;;2.00;82.20;;;;;;4975089;28;20243;-83
2022/03/10 00:54:18;;;;;;;10.33;6.47;;;1.90;82.20;;;;;;4980913;28;20936;-85
2022/03/10 00:56:45;;;;;;;9.00;6.30;;;1.90;82.80;;;;;;4985452;28;20231;-84
2022/03/10 00:59:12;;;;;;;14.13;7.00;;;1.90;82.80;;;;;;4983699;28;20233;-83
2022/03/10 01:01:38;;;;;;;10.27;6.93;;;2.00;83.00;;;;;;4990311;28;20229;-82
2022/03/10 01:04:05;;;;;;;9.97;7.00;;;1.90;83.00;;;;;;4983871;28;20676;-83
2022/03/10 01:06:32;;;;;;;10.13;6.60;;;1.80;83.20;;;;;;4989960;28;20232;-83
2022/03/10 01:08:58;;;;;;;11.67;7.27;;;1.80;83.20;;;;;;4966213;28;20223;-83
2022/03/10 01:11:27;;;;;;;8.03;6.53;;;1.80;83.30;;;;;;4969431;28;20596;-83
2022/03/10 01:13:53;;;;;;;12.37;7.10;;;1.80;83.70;;;;;;4966851;28;20230;-83
2022/03/10 01:16:20;;;;;;;10.47;6.63;;;1.80;83.30;;;;;;4988901;28;20307;-83
2022/03/10 01:18:48;;;;;;;11.37;7.00;;;1.70;83.50;;;;;;4969673;28;20245;-83
2022/03/10 01:21:15;;;;;;;10.87;6.80;;;1.70;83.50;;;;;;4975210;28;20229;-83
2022/03/10 01:23:42;;;;;;;9.33;6.80;;;1.70;83.50;;;;;;4986154;28;20255;-83
2022/03/10 01:26:08;;;;;;;8.97;6.27;;;1.60;83.40;;;;;;4986043;28;20261;-83
2022/03/10 01:28:37;;;;;;;8.87;6.47;;;1.60;83.30;;;;;;4969281;28;20230;-82
2022/03/10 01:31:04;;;;;;;10.10;7.03;;;1.60;83.50;;;;;;4982375;28;20229;-83
2022/03/10 01:33:30;;;;;;;9.67;7.00;;;1.60;83.60;;;;;;4985307;28;20239;-82
2022/03/10 01:35:57;;;;;;;10.37;6.97;;;1.60;83.80;;;;;;4985830;28;20301;-82
2022/03/10 01:38:24;;;;;;;8.93;6.37;;;1.50;84.10;;;;;;4984765;28;20242;-83
2022/03/10 01:40:50;;;;;;;12.03;6.83;;;1.50;83.80;;;;;;4964438;28;20324;-82
2022/03/10 01:43:17;;;;;;;10.13;6.73;;;1.50;84.30;;;;;;4962391;28;20252;-82
2022/03/10 01:45:45;;;;;;;10.43;6.73;;;1.40;84.10;;;;;;4971122;28;20233;-83
2022/03/10 01:48:12;;;;;;;9.23;7.00;;;1.40;84.20;;;;;;4969587;28;20226;-83
2022/03/10 01:50:38;;;;;;;9.37;6.40;;;1.40;84.10;;;;;;4958748;28;20230;-83
2022/03/10 01:53:05;;;;;;;10.67;7.07;;;1.30;84.30;;;;;;4980514;28;20227;-83
2022/03/10 01:55:32;;;;;;;10.77;7.37;;;1.40;84.50;;;;;;4987012;28;20232;-82
2022/03/10 01:57:59;;;;;;;9.07;6.97;;;1.30;84.60;;;;;;4960069;28;20228;-82
2022/03/10 02:00:26;;;;;;;9.37;6.67;;;1.30;84.80;;;;;;4965925;28;20774;-82
2022/03/10 02:02:54;;;;;;;10.03;6.60;;;1.20;84.80;;;;;;4968229;28;20626;-82
2022/03/10 02:05:21;;;;;;;12.23;7.70;;;1.20;84.90;;;;;;4976636;28;20820;-83
2022/03/10 02:10:42;;;;;;;10.73;7.30;;;1.20;85.60;;;;;;4954860;28;20236;-83
2022/03/10 02:13:08;;;;;;;9.90;7.20;;;1.10;85.10;;;;;;4978613;28;20239;-83
2022/03/10 02:18:21;;;;;;;9.87;6.97;;;1.10;85.80;;;;;;4939149;28;20210;-82
2022/03/10 02:20:48;;;;;;;9.90;7.40;;;1.10;85.80;;;;;;4980691;28;20228;-83
2022/03/10 02:23:17;;;;;;;10.83;6.77;;;1.10;86.10;;;;;;4980178;28;20226;-83
2022/03/10 02:25:44;;;;;;;10.20;7.83;;;1.10;86.10;;;;;;4978443;28;20291;-83
2022/03/10 02:28:10;;;;;;;10.23;7.13;;;1.10;86.90;;;;;;4964067;28;20233;-84
2022/03/10 02:30:38;;;;;;;12.20;7.77;;;1.10;86.90;;;;;;4968238;28;20226;-81
2022/03/10 02:33:05;;;;;;;10.77;7.50;;;1.10;86.90;;;;;;4979877;28;20236;-82
2022/03/10 02:35:32;;;;;;;10.27;6.93;;;1.10;86.90;;;;;;4964991;28;20501;-83
2022/03/10 02:37:59;;;;;;;10.00;7.10;;;1.10;86.90;;;;;;4972765;28;20228;-82
2022/03/10 02:40:27;;;;;;;12.20;7.50;;;1.10;86.60;;;;;;4968591;28;21096;-83
2022/03/10 02:42:54;;;;;;;11.70;7.53;;;1.10;87.10;;;;;;4987723;28;20242;-83
2022/03/10 02:45:21;;;;;;;11.87;7.30;;;1.10;86.90;;;;;;4968886;28;20245;-83
2022/03/10 02:47:48;;;;;;;10.90;7.73;;;1.10;87.40;;;;;;4967926;28;20678;-83
2022/03/10 02:50:15;;;;;;;10.83;7.70;;;1.10;87.20;;;;;;4973050;28;20241;-83
2022/03/10 02:52:44;;;;;;;12.10;7.33;;;1.10;87.00;;;;;;4963634;28;20281;-82
2022/03/10 02:55:11;;;;;;;10.83;7.67;;;1.10;87.50;;;;;;4987208;28;20237;-81
2022/03/10 02:57:39;;;;;;;11.37;7.83;;;1.10;87.20;;;;;;4981208;28;20800;-84
2022/03/10 03:00:08;;;;;;;9.87;7.37;;;1.10;87.40;;;;;;4966680;28;20230;-84
2022/03/10 03:02:35;;;;;;;9.10;7.07;;;1.00;87.30;;;;;;4959724;28;20766;-85
2022/03/10 03:05:02;;;;;;;11.23;7.50;;;1.00;87.00;;;;;;4967089;28;20690;-84
2022/03/10 03:07:28;;;;;;;11.73;7.40;;;1.00;87.20;;;;;;4967661;28;20237;-83
2022/03/10 03:09:55;;;;;;;10.10;7.47;;;1.00;87.00;;;;;;4966710;28;20713;-84
2022/03/10 03:12:22;;;;;;;10.97;7.47;;;1.00;87.00;;;;;;4986679;28;20227;-84
2022/03/10 03:14:50;;;;;;;10.73;7.13;;;1.00;86.80;;;;;;4980644;28;20239;-84
2022/03/10 03:17:16;;;;;;;13.03;7.33;;;0.90;86.80;;;;;;4987341;28;20235;-85
2022/03/10 03:19:43;;;;;;;10.40;7.10;;;0.90;86.50;;;;;;4954187;28;20484;-84
2022/03/10 03:22:10;;;;;;;9.60;6.83;;;0.80;86.70;;;;;;4986433;28;20228;-83
2022/03/10 03:24:38;;;;;;;9.77;6.87;;;0.80;87.00;;;;;;4966415;28;20319;-85
2022/03/10 03:27:04;;;;;;;11.13;7.70;;;0.70;87.10;;;;;;4970250;28;20227;-84
2022/03/10 03:29:31;;;;;;;10.87;7.63;;;0.70;87.40;;;;;;4958716;28;20251;-84
2022/03/10 03:31:59;;;;;;;10.63;7.73;;;0.70;87.60;;;;;;4981237;28;20380;-85
2022/03/10 03:34:26;;;;;;;12.50;8.83;;;0.70;87.60;;;;;;4987513;28;20224;-82
2022/03/10 03:36:53;;;;;;;12.07;8.13;;;0.60;87.70;;;;;;4986115;28;20228;-81
2022/03/10 03:39:20;;;;;;;10.73;8.20;;;0.60;87.90;;;;;;4971274;28;20339;-81
2022/03/10 03:41:46;;;;;;;10.70;6.90;;;0.50;88.00;;;;;;4965323;28;20259;-81
2022/03/10 03:44:13;;;;;;;13.20;7.43;;;0.50;87.70;;;;;;4970882;28;20239;-81
2022/03/10 03:46:42;;;;;;;11.77;8.40;;;0.50;88.10;;;;;;4971406;28;20256;-81
2022/03/10 03:49:10;;;;;;;12.53;7.97;;;0.50;89.20;;;;;;4969249;28;20240;-82
2022/03/10 03:51:37;;;;;;;11.60;7.93;;;0.50;88.40;;;;;;4987375;28;20244;-82
2022/03/10 03:54:05;;;;;;;12.73;8.33;;;0.50;89.00;;;;;;4982765;28;20242;-81
2022/03/10 03:56:31;;;;;;;11.90;8.00;;;0.40;88.80;;;;;;4988242;28;20234;-81
2022/03/10 03:58:58;;;;;;;15.00;7.87;;;0.50;89.40;;;;;;4980825;28;20225;-82
2022/03/10 04:01:25;;;;;;;12.13;8.57;;;0.40;89.30;;;;;;4970439;28;20258;-85
2022/03/10 04:03:51;;;;;;;12.97;7.93;;;0.40;89.50;;;;;;4972555;28;20231;-82
2022/03/10 04:06:19;;;;;;;16.17;9.20;;;0.40;89.50;;;;;;4968847;28;20230;-82
2022/03/10 04:08:46;;;;;;;13.17;8.40;;;0.40;90.00;;;;;;4984875;28;20710;-81
2022/03/10 04:11:13;;;;;;;12.77;8.50;;;0.40;89.80;;;;;;4989382;28;20682;-83
2022/03/10 04:13:40;;;;;;;13.07;8.60;;;0.30;89.80;;;;;;4984877;28;20228;-83
2022/03/10 04:16:07;;;;;;;13.53;8.33;;;0.30;89.90;;;;;;4963403;28;20232;-83
2022/03/10 04:18:34;;;;;;;13.33;8.40;;;0.30;89.90;;;;;;4985307;28;20254;-83
2022/03/10 04:21:00;;;;;;;14.40;9.13;;;0.30;90.00;;;;;;4962337;28;20229;-84
2022/03/10 04:23:28;;;;;;;13.40;9.17;;;0.30;90.10;;;;;;4967234;28;20306;-82
2022/03/10 04:25:55;;;;;;;14.13;9.07;;;0.30;90.20;;;;;;4988968;28;20303;-82
2022/03/10 04:28:23;;;;;;;14.93;8.83;;;0.30;90.10;;;;;;4991402;28;20251;-83
2022/03/10 04:30:49;;;;;;;13.23;8.60;;;0.30;90.20;;;;;;4967233;28;20231;-83
2022/03/10 04:33:16;;;;;;;15.17;8.73;;;0.30;90.40;;;;;;4991936;28;20234;-82
2022/03/10 04:35:44;;;;;;;14.97;9.37;;;0.30;90.30;;;;;;4975327;28;20251;-83
2022/03/10 04:38:11;;;;;;;18.23;9.23;;;0.30;90.80;;;;;;4991377;28;20700;-82
2022/03/10 04:40:39;;;;;;;16.43;8.47;;;0.20;90.50;;;;;;4974232;28;20286;-83
2022/03/10 04:43:05;;;;;;;12.63;8.47;;;0.20;90.50;;;;;;4991216;28;20290;-83
2022/03/10 04:45:32;;;;;;;14.80;9.30;;;0.20;90.50;;;;;;4987099;28;20225;-82
2022/03/10 04:47:59;;;;;;;14.93;9.50;;;0.20;90.40;;;;;;4959749;28;20715;-83
2022/03/10 04:50:26;;;;;;;16.10;9.07;;;0.20;90.40;;;;;;4970132;28;20280;-83
2022/03/10 04:52:53;;;;;;;15.20;9.10;;;0.20;90.30;;;;;;4985013;28;20304;-83
2022/03/10 04:55:20;;;;;;;15.43;9.47;;;0.20;90.40;;;;;;4984614;28;20239;-83
2022/03/10 04:57:48;;;;;;;13.67;9.47;;;0.20;90.60;;;;;;4986226;28;20260;-83
2022/03/10 05:00:18;;;;;;;15.63;9.10;;;0.20;90.70;;;;;;4965664;28;20234;-82
2022/03/10 05:02:45;;;;;;;13.83;9.53;;;0.20;90.80;;;;;;4969038;28;20230;-84
2022/03/10 05:05:13;;;;;;;17.37;9.87;;;0.20;90.80;;;;;;4982582;28;20232;-84
2022/03/10 05:07:40;;;;;;;14.23;9.33;;;0.20;90.90;;;;;;4981942;28;20245;-84
2022/03/10 05:10:08;;;;;;;13.40;9.53;;;0.20;91.00;;;;;;4959077;28;20226;-83
2022/03/10 05:12:34;;;;;;;16.77;9.10;;;0.10;90.90;;;;;;4963131;28;20234;-82
2022/03/10 05:15:02;;;;;;;14.73;9.27;;;0.10;90.60;;;;;;4966863;28;20818;-82
2022/03/10 05:17:29;;;;;;;16.73;10.07;;;0.10;90.90;;;;;;4987927;28;20334;-82
2022/03/10 05:19:56;;;;;;;14.93;9.70;;;0.10;90.90;;;;;;4987340;28;20234;-81
2022/03/10 05:22:45;;;;;;;16.77;10.00;;;0.10;91.00;;;;;;5089271;27;20892;-83
2022/03/10 05:25:12;;;;;;;17.30;10.07;;;0.10;91.20;;;;;;5080991;28;20297;-83
2022/03/10 05:27:39;;;;;;;16.43;9.50;;;0.10;90.80;;;;;;5090181;28;20240;-83
2022/03/10 05:30:07;;;;;;;15.83;10.53;;;0.10;90.90;;;;;;5088906;28;20232;-82
2022/03/10 05:32:33;;;;;;;15.73;10.03;;;0.10;91.10;;;;;;5077449;28;20238;-82
2022/03/10 05:35:01;;;;;;;16.77;10.13;;;0.10;91.00;;;;;;5082516;28;20577;-82
2022/03/10 05:37:27;;;;;;;15.33;9.73;;;0.10;91.10;;;;;;5079019;28;20229;-82
2022/03/10 05:39:55;;;;;;;16.73;10.30;;;0.10;91.20;;;;;;5080865;28;20719;-82
2022/03/10 05:42:23;;;;;;;17.10;10.43;;;0.10;91.40;;;;;;5085905;28;20229;-82
2022/03/10 05:44:49;;;;;;;18.83;10.53;;;0.00;91.40;;;;;;5081573;28;20248;-82
2022/03/10 05:47:16;;;;;;;18.87;10.90;;;0.00;91.40;;;;;;5085451;28;20669;-84
2022/03/10 05:49:43;;;;;;;18.67;11.20;;;0.00;91.60;;;;;;5082429;28;20239;-82
2022/03/10 05:52:09;;;;;;;19.70;10.57;;;0.00;91.30;;;;;;5081054;28;20888;-82
2022/03/10 05:54:36;;;;;;;16.27;10.60;;;0.00;91.40;;;;;;5086259;28;20240;-84
2022/03/10 05:57:05;;;;;;;18.60;11.40;;;0.00;91.50;;;;;;5084543;28;20223;-81
2022/03/10 05:59:31;;;;;;;24.60;10.70;;;0.00;91.60;;;;;;5083045;28;20549;-82
2022/03/10 06:01:58;;;;;;;16.10;9.90;;;0.00;91.60;;;;;;5086584;28;20223;-81
2022/03/10 06:04:25;;;;;;;28.53;11.57;;;0.00;91.90;;;;;;5081931;28;20305;-84
2022/03/10 06:06:51;;;;;;;18.97;10.63;;;0.00;92.00;;;;;;5073685;28;20223;-84
2022/03/10 06:09:18;;;;;;;19.20;11.50;;;0.00;92.10;;;;;;5085644;28;20257;-82
2022/03/10 06:11:45;;;;;;;20.43;11.13;;;0.00;92.10;;;;;;5085740;28;20235;-83
2022/03/10 06:14:13;;;;;;;17.37;10.70;;;0.00;92.30;;;;;;5085319;28;20227;-83
2022/03/10 06:16:40;;;;;;;20.00;10.67;;;0.10;92.40;;;;;;5088997;28;20667;-84
2022/03/10 06:19:08;;;;;;;18.03;11.37;;;0.10;92.30;;;;;;5085995;28;20290;-83
2022/03/10 06:21:35;;;;;;;17.27;11.23;;;0.20;92.50;;;;;;5088954;28;20220;-83
2022/03/10 06:24:01;;;;;;;17.70;10.70;;;0.30;92.70;;;;;;5086245;28;20679;-84
2022/03/10 06:26:28;;;;;;;18.23;10.73;;;0.30;92.50;;;;;;5086940;28;20233;-84
2022/03/10 06:28:55;;;;;;;16.80;10.60;;;0.40;92.70;;;;;;5081839;28;20227;-84
2022/03/10 06:31:24;;;;;;;18.57;10.93;;;0.50;92.80;;;;;;5083991;28;20218;-84
2022/03/10 06:33:52;;;;;;;16.50;10.93;;;0.70;92.60;;;;;;5077660;28;20260;-84
2022/03/10 06:36:19;;;;;;;16.93;10.77;;;0.80;92.60;;;;;;5077897;28;20257;-83
2022/03/10 06:38:46;;;;;;;16.73;10.70;;;1.00;92.30;;;;;;5072789;28;20219;-84
2022/03/10 06:41:12;;;;;;;15.03;10.07;;;1.10;92.00;;;;;;5075319;28;20339;-85
2022/03/10 06:43:39;;;;;;;17.60;11.33;;;1.30;91.90;;;;;;5071757;28;20235;-84
2022/03/10 06:46:06;;;;;;;17.70;10.70;;;1.40;91.70;;;;;;5069850;28;20233;-84
2022/03/10 06:48:34;;;;;;;16.40;10.80;;;1.50;91.50;;;;;;5072806;28;20661;-84
2022/03/10 06:51:01;;;;;;;18.90;10.87;;;1.60;91.50;;;;;;5073417;28;20298;-84
2022/03/10 06:53:28;;;;;;;17.47;10.93;;;1.60;91.40;;;;;;5068713;28;20230;-84
2022/03/10 06:55:54;;;;;;;15.83;10.10;;;1.70;91.30;;;;;;5070612;28;20224;-84
2022/03/10 06:58:21;;;;;;;17.33;10.63;;;1.70;91.10;;;;;;5070562;28;20239;-84
2022/03/10 07:00:48;;;;;;;17.23;11.70;;;1.80;91.40;;;;;;5070259;28;20228;-83
2022/03/10 07:03:15;;;;;;;20.23;13.47;;;1.80;91.10;;;;;;5070303;28;20237;-83
2022/03/10 07:05:44;;;;;;;17.10;10.87;;;1.90;91.30;;;;;;5070149;28;20302;-83
2022/03/10 07:08:11;;;;;;;18.60;11.50;;;1.90;91.40;;;;;;5066328;28;20263;-83
2022/03/10 07:10:38;;;;;;;15.87;10.87;;;1.90;91.10;;;;;;5072425;28;20234;-83
2022/03/10 07:13:04;;;;;;;17.07;10.73;;;2.00;91.10;;;;;;5071330;28;20735;-84
2022/03/10 07:15:31;;;;;;;17.30;10.57;;;2.10;91.00;;;;;;5061201;28;20230;-83
2022/03/10 07:17:58;;;;;;;18.93;11.67;;;2.20;91.20;;;;;;5072327;28;20521;-83
2022/03/10 07:20:24;;;;;;;14.87;9.77;;;2.20;91.10;;;;;;5072269;28;20343;-84
2022/03/10 07:22:53;;;;;;;15.03;10.13;;;2.30;91.20;;;;;;5071885;28;20244;-83
2022/03/10 07:25:20;;;;;;;13.93;10.20;;;2.40;91.20;;;;;;5073062;28;20304;-82
2022/03/10 07:27:47;;;;;;;17.00;11.27;;;2.50;91.50;;;;;;5075107;28;20228;-82
2022/03/10 07:30:14;;;;;;;17.77;11.40;;;2.70;91.20;;;;;;5073556;28;20653;-82
2022/03/10 07:32:41;;;;;;;16.07;10.63;;;2.80;91.50;;;;;;5076008;28;20222;-82
2022/03/10 07:35:08;;;;;;;16.90;11.10;;;3.00;90.90;;;;;;5073128;28;20226;-83
2022/03/10 07:37:35;;;;;;;16.20;10.50;;;3.20;90.90;;;;;;5076707;28;20223;-83
2022/03/10 07:40:04;;;;;;;15.30;10.40;;;3.40;90.90;;;;;;5072929;28;20234;-83
2022/03/10 07:42:31;;;;;;;14.13;10.47;;;3.70;91.10;;;;;;5069757;28;21067;-83
2022/03/10 07:44:57;;;;;;;14.90;10.57;;;4.00;90.90;;;;;;5069849;28;20229;-84
2022/03/10 07:47:24;;;;;;;15.47;10.47;;;4.30;90.60;;;;;;5071801;28;20242;-84
2022/03/10 07:49:51;;;;;;;15.23;10.43;;;4.70;90.40;;;;;;5069356;28;20289;-83
2022/03/10 07:52:17;;;;;;;14.90;9.90;;;5.00;90.10;;;;;;5068309;28;20232;-83
2022/03/10 07:54:44;;;;;;;15.17;10.03;;;5.40;89.80;;;;;;5066136;28;20776;-83
2022/03/10 07:57:12;;;;;;;14.07;9.57;;;5.60;88.40;;;;;;5070739;28;20560;-83
2022/03/10 07:59:39;;;;;;;15.40;10.80;;;5.90;87.50;;;;;;5066361;28;20683;-83
2022/03/10 08:02:06;;;;;;;14.57;10.33;;;6.10;87.00;;;;;;5070304;28;20596;-83
2022/03/10 08:04:32;;;;;;;13.57;9.97;;;6.30;85.90;;;;;;5071577;28;20713;-83
2022/03/10 08:06:59;;;;;;;13.53;9.90;;;6.40;85.10;;;;;;5073517;28;20234;-83
2022/03/10 08:09:26;;;;;;;13.10;9.87;;;6.50;84.10;;;;;;5069332;28;20235;-83
2022/03/10 08:11:52;;;;;;;16.13;10.00;;;6.60;84.10;;;;;;5067982;28;20244;-84
2022/03/10 08:14:20;;;;;;;15.23;10.77;;;6.70;83.80;;;;;;5068486;28;20862;-83
2022/03/10 08:16:47;;;;;;;17.27;10.57;;;6.70;83.30;;;;;;5070383;28;20239;-83
2022/03/10 08:19:14;;;;;;;13.53;10.17;;;6.80;82.70;;;;;;5071918;28;20226;-83
2022/03/10 08:21:41;;;;;;;19.00;10.67;;;6.70;82.20;;;;;;5071838;28;20847;-83
2022/03/10 08:24:07;;;;;;;15.23;10.23;;;6.70;82.20;;;;;;5071597;28;20480;-83
2022/03/10 08:26:34;;;;;;;16.30;11.03;;;6.70;82.50;;;;;;5070697;28;20244;-82
2022/03/10 08:29:01;;;;;;;15.03;10.17;;;6.80;82.90;;;;;;5067933;28;20230;-83
2022/03/10 08:31:29;;;;;;;15.63;11.07;;;6.90;82.70;;;;;;5069505;28;20287;-82
2022/03/10 08:33:56;;;;;;;17.63;12.33;;;7.00;81.50;;;;;;5064300;28;20225;-85
2022/03/10 08:36:22;;;;;;;17.70;11.10;;;7.10;81.30;;;;;;5065206;28;20305;-85
2022/03/10 08:38:49;;;;;;;16.03;10.83;;;7.20;80.60;;;;;;5064344;28;20230;-84
2022/03/10 08:41:16;;;;;;;18.93;12.00;;;7.30;80.40;;;;;;5064239;28;20240;-84
2022/03/10 08:43:43;;;;;;;15.00;10.03;;;7.40;79.50;;;;;;5068309;28;20243;-84
2022/03/10 08:46:10;;;;;;;13.87;10.10;;;7.60;80.20;;;;;;5064532;28;20574;-85
2022/03/10 08:48:39;;;;;;;15.17;9.67;;;7.90;80.20;;;;;;5064270;28;20225;-85
2022/03/10 08:51:06;;;;;;;13.80;9.53;;;8.30;79.70;;;;;;5059523;28;20230;-85
2022/03/10 08:53:34;;;;;;;15.57;11.07;;;8.70;80.00;;;;;;5065323;28;20715;-85
2022/03/10 08:56:01;;;;;;;15.33;11.03;;;9.20;77.40;;;;;;5064271;28;20311;-82
2022/03/10 08:58:27;;;;;;;14.80;9.73;;;9.60;76.50;;;;;;5070549;28;20231;-84
2022/03/10 09:00:55;;;;;;;14.43;10.27;;;10.00;76.70;;;;;;5066858;28;20231;-84
2022/03/10 09:03:21;;;;;;;14.57;10.40;;;10.30;73.30;;;;;;5066775;28;20238;-84
2022/03/10 09:05:49;;;;;;;12.80;9.57;;;10.60;71.80;;;;;;5063975;28;20813;-84
2022/03/10 09:08:16;;;;;;;12.77;10.03;;;11.00;72.90;;;;;;5063334;28;20228;-84
2022/03/10 09:10:43;;;;;;;13.07;9.33;;;11.30;71.90;;;;;;5065293;28;20230;-84
2022/03/10 09:13:09;;;;;;;11.87;9.10;;;11.60;73.10;;;;;;5060713;28;20241;-83
2022/03/10 09:15:36;;;;;;;13.40;9.63;;;12.00;72.50;;;;;;5066061;28;20947;-83
2022/03/10 09:18:03;;;;;;;12.87;9.97;;;12.30;71.70;;;;;;5063322;28;20395;-84
2022/03/10 09:20:30;;;;;;;14.83;10.13;;;12.80;68.70;;;;;;5061673;28;20970;-84
2022/03/10 09:22:58;;;;;;;12.80;9.77;;;13.10;67.90;;;;;;5064644;28;20718;-83
2022/03/10 09:25:25;;;;;;;12.07;9.03;;;13.40;66.40;;;;;;5062971;28;20762;-82
2022/03/10 09:27:51;;;;;;;13.10;9.77;;;13.60;64.60;;;;;;5067765;28;20227;-83
2022/03/10 09:30:19;;;;;;;11.37;9.00;;;13.70;63.10;;;;;;5063338;28;20255;-83
2022/03/10 09:32:45;;;;;;;13.67;9.40;;;13.80;64.30;;;;;;5068880;28;20226;-83
2022/03/10 09:35:15;;;;;;;11.40;9.00;;;14.00;63.80;;;;;;5063442;28;20342;-83
2022/03/10 09:37:42;;;;;;;12.57;9.13;;;14.10;63.50;;;;;;5065357;28;20692;-82
2022/03/10 09:40:12;;;;;;;12.83;9.50;;;14.10;60.10;;;;;;5066688;28;20243;-83
2022/03/10 09:42:39;;;;;;;12.03;8.53;;;14.30;61.20;;;;;;5066066;28;20417;-83
2022/03/10 09:45:08;;;;;;;11.53;8.53;;;14.30;61.50;;;;;;5064593;28;20342;-82
2022/03/10 09:47:37;;;;;;;14.00;9.50;;;14.40;61.60;;;;;;5065479;28;20420;-82
2022/03/10 09:50:07;;;;;;;11.33;8.77;;;14.50;62.30;;;;;;5063504;28;20235;-82
2022/03/10 09:52:34;;;;;;;12.03;9.03;;;14.70;63.50;;;;;;5065604;28;20233;-82
2022/03/10 09:55:01;;;;;;;12.03;8.50;;;15.00;60.90;;;;;;5070201;28;20229;-82
2022/03/10 09:57:30;;;;;;;15.20;8.90;;;15.30;62.30;;;;;;5065441;28;20321;-82
2022/03/10 09:59:58;;;;;;;13.13;9.43;;;15.50;59.80;;;;;;5065495;28;20298;-82
2022/03/10 10:02:26;;;;;;;10.77;8.20;;;15.70;59.50;;;;;;5073271;28;20719;-82
2022/03/10 10:04:53;;;;;;;14.10;9.63;;;15.90;59.40;;;;;;5065025;28;20235;-82
2022/03/10 10:07:22;;;;;;;11.37;8.43;;;16.00;56.50;;;;;;5065941;28;20311;-82
2022/03/10 10:09:53;;;;;;;11.37;9.00;;;16.10;57.60;;;;;;5072054;28;20254;-83
2022/03/10 10:12:22;;;;;;;12.07;9.63;;;16.10;54.90;;;;;;5077374;28;20304;-82
2022/03/10 10:14:51;;;;;;;11.90;9.10;;;16.10;55.60;;;;;;5066583;28;20231;-82
2022/03/10 10:17:26;;;;;;;13.03;9.33;;;16.00;57.20;;;;;;5069302;28;20341;-82
2022/03/10 10:19:56;;;;;;;12.33;9.40;;;16.00;57.00;;;;;;5066411;28;20226;-82
2022/03/10 10:22:24;;;;;;;11.87;9.03;;;16.20;57.70;;;;;;5070428;28;20227;-82
2022/03/10 10:24:51;;;;;;;12.10;9.37;;;16.30;57.80;;;;;;5066681;28;20496;-82
2022/03/10 10:27:20;;;;;;;13.83;10.00;;;16.50;57.30;;;;;;5070061;28;20227;-82
2022/03/10 10:29:51;;;;;;;12.13;8.83;;;16.70;56.50;;;;;;5066999;28;20231;-83
2022/03/10 10:32:33;;;;;;;11.53;9.30;;;16.90;57.20;;;;;;5069949;28;20227;-82
2022/03/10 10:35:02;;;;;;;12.40;9.43;;;17.10;52.60;;;;;;5067829;28;20223;-82
2022/03/10 10:37:29;;;;;;;13.57;9.10;;;17.10;52.40;;;;;;5066879;28;20231;-83
2022/03/10 10:39:58;;;;;;;14.87;10.03;;;17.10;52.80;;;;;;5069800;28;20230;-82
2022/03/10 10:42:29;;;;;;;11.60;8.80;;;17.00;53.30;;;;;;5071041;28;20749;-83
2022/03/10 10:45:00;;;;;;;11.43;8.67;;;16.80;53.60;;;;;;5070658;28;20246;-83
2022/03/10 10:47:27;;;;;;;11.73;9.23;;;16.80;52.20;;;;;;5067461;28;20298;-82
2022/03/10 10:50:01;;;;;;;10.87;8.37;;;16.60;51.90;;;;;;5066523;28;20250;-83
2022/03/10 10:52:38;;;;;;;12.27;8.63;;;16.40;51.50;;;;;;5068762;28;20226;-83
2022/03/10 10:55:07;;;;;;;10.00;8.60;;;16.10;52.20;;;;;;5062930;28;20246;-82
2022/03/10 10:57:36;;;;;;;11.40;8.50;;;16.00;52.80;;;;;;5067092;28;20432;-83
2022/03/10 11:00:08;;;;;;;12.23;8.40;;;15.70;51.90;;;;;;5068529;28;20312;-82
2022/03/10 11:02:44;;;;;;;11.27;8.50;;;15.50;51.50;;;;;;5066734;28;20229;-82
2022/03/10 11:05:14;;;;;;;11.07;8.57;;;15.40;53.00;;;;;;5068150;28;20733;-82
2022/03/10 11:07:41;;;;;;;10.90;8.20;;;15.30;53.20;;;;;;5065158;28;20334;-82
2022/03/10 11:10:09;;;;;;;11.83;8.60;;;15.30;54.10;;;;;;5064067;28;20317;-83
2022/03/10 11:12:39;;;;;;;13.13;8.77;;;15.40;53.30;;;;;;5067423;28;20245;-82
2022/03/10 11:15:09;;;;;;;11.20;8.37;;;15.50;53.30;;;;;;5063279;28;20229;-83
2022/03/10 11:17:36;;;;;;;10.60;8.40;;;15.60;53.30;;;;;;5072441;28;20231;-83
2022/03/10 11:20:07;;;;;;;12.00;8.87;;;15.70;53.70;;;;;;5065800;28;20325;-83
2022/03/10 11:22:51;;;;;;;11.60;8.07;;;15.80;52.20;;;;;;5066987;28;20250;-83
2022/03/10 11:25:38;;;;;;;11.93;9.13;;;15.90;53.30;;;;;;5059850;28;20773;-83
2022/03/10 11:28:12;;;;;;;12.30;8.83;;;15.80;51.10;;;;;;5068133;28;20238;-83
2022/03/10 11:30:41;;;;;;;14.27;9.23;;;15.80;51.70;;;;;;5068970;28;20735;-83
2022/03/10 11:33:13;;;;;;;12.70;9.53;;;15.80;52.40;;;;;;5066903;28;20230;-83
2022/03/10 11:35:41;;;;;;;11.23;8.73;;;15.80;53.70;;;;;;5068633;28;20242;-83
2022/03/10 11:38:09;;;;;;;11.23;8.63;;;16.00;53.80;;;;;;5060436;28;20660;-82
2022/03/10 11:40:48;;;;;;;13.40;9.00;;;16.10;53.40;;;;;;5064294;28;20234;-82
2022/03/10 11:43:29;;;;;;;11.57;9.00;;;16.30;53.10;;;;;;5063615;28;20223;-82
2022/03/10 11:46:22;;;;;;;10.67;9.10;;;16.40;51.10;;;;;;5065894;28;20238;-82
2022/03/10 11:49:03;;;;;;;9.90;8.57;;;16.40;51.30;;;;;;5064079;28;20226;-81
2022/03/10 11:51:45;;;;;;;12.57;9.13;;;16.40;51.30;;;;;;5058295;28;20334;-82
2022/03/10 11:54:16;;;;;;;13.10;9.10;;;16.50;51.40;;;;;;5064000;28;20225;-84
2022/03/10 11:57:11;;;;;;;13.07;8.90;;;16.50;51.50;;;;;;5068420;28;20237;-84
2022/03/10 11:59:50;;;;;;;10.57;8.37;;;16.40;49.70;;;;;;5068150;28;20231;-83
2022/03/10 12:02:44;;;;;;;11.13;9.10;;;16.40;50.30;;;;;;5066721;28;20231;-83
2022/03/10 12:05:13;;;;;;;10.83;8.87;;;16.30;49.50;;;;;;5067569;28;20238;-83
2022/03/10 12:07:44;;;;;;;13.33;9.47;;;16.20;50.40;;;;;;5061809;28;20230;-83
2022/03/10 12:10:14;;;;;;;10.67;9.17;;;16.00;50.20;;;;;;5063665;28;20306;-83
2022/03/10 12:12:43;;;;;;;12.10;9.40;;;15.90;50.80;;;;;;5064155;28;20223;-83
2022/03/10 12:15:46;;;;;;;10.53;8.53;;;15.90;51.40;;;;;;5064229;28;20278;-83
2022/03/10 12:18:19;;;;;;;13.87;9.87;;;15.80;50.80;;;;;;5062620;28;20314;-82
2022/03/10 12:20:48;;;;;;;14.60;9.63;;;15.70;49.80;;;;;;5087113;28;20243;-83
2022/03/10 12:23:16;;;;;;;11.83;9.67;;;15.70;51.20;;;;;;5065691;28;20265;-82
2022/03/10 12:25:44;;;;;;;12.83;9.90;;;15.60;51.20;;;;;;5070032;28;20840;-82
2022/03/10 12:28:22;;;;;;;12.47;9.50;;;15.60;51.90;;;;;;5062693;28;20227;-82
2022/03/10 12:30:50;;;;;;;10.83;8.90;;;15.70;51.70;;;;;;5062669;28;20294;-82
2022/03/10 12:33:18;;;;;;;12.63;9.43;;;15.80;51.20;;;;;;5064940;28;20231;-82
2022/03/10 12:35:45;;;;;;;12.97;10.20;;;15.90;51.80;;;;;;5066415;28;20226;-82
2022/03/10 12:38:12;;;;;;;14.97;11.43;;;16.00;51.70;;;;;;5059759;28;20230;-83
2022/03/10 12:40:40;;;;;;;15.33;11.40;;;16.00;50.30;;;;;;5066580;28;20334;-82
2022/03/10 12:43:08;;;;;;;13.53;10.10;;;16.00;49.70;;;;;;5064245;28;20235;-82
2022/03/10 12:45:43;;;;;;;14.93;10.47;;;15.90;50.20;;;;;;5065802;28;20731;-83
2022/03/10 12:48:15;;;;;;;15.23;10.23;;;15.60;48.90;;;;;;5065832;28;20225;-82
2022/03/10 12:50:46;;;;;;;14.03;10.73;;;15.50;50.60;;;;;;5072538;28;20545;-82
2022/03/10 12:53:13;;;;;;;14.43;10.77;;;15.40;50.70;;;;;;5065710;28;20222;-82